Time,TemperatureF,DewpointF,PressureIn,WindDirection,WindDirectionDegrees,WindSpeedMPH,WindSpeedGustMPH,Humidity,HourlyPrecipIn,Conditions,Clouds,dailyrainin,SoftwareType,DateUTC
2015-03-31 00:30:00,50.0,-99.9,-100.00,NNE,28,2.0,6.0,-999,-99.99,,,-99.99,,2015-03-31 05:30:00,
2015-03-31 00:32:00,50.0,-99.9,-100.00,NNE,29,6.0,9.0,-999,-99.99,,,-99.99,,2015-03-31 05:32:00,
2015-03-31 00:42:00,50.0,-99.9,-100.00,NNE,29,6.0,9.0,-999,-99.99,,,-99.99,,2015-03-31 05:42:00,
2015-03-31 00:52:00,50.0,-99.9,-100.00,NNE,29,6.0,9.0,-999,-99.99,,,-99.99,,2015-03-31 05:52:00,
2015-03-31 01:02:00,50.0,-99.9,-100.00,NNE,28,2.0,6.0,-999,-99.99,,,-99.99,,2015-03-31 06:02:00,
2015-03-31 01:11:00,50.0,-99.9,-100.00,NNE,28,2.0,6.0,-999,-99.99,,,-99.99,,2015-03-31 06:11:00,
2015-03-31 01:22:00,50.0,-99.9,-100.00,NNE,28,2.0,6.0,-999,-99.99,,,-99.99,,2015-03-31 06:22:00,
2015-03-31 01:30:00,47.0,-99.9,-100.00,NE,41,6.0,7.0,-999,-99.99,,,-99.99,,2015-03-31 06:30:00,
2015-03-31 02:21:00,47.0,-99.9,-100.00,NE,41,6.0,7.0,-999,-99.99,,,-99.99,,2015-03-31 07:21:00,
2015-03-31 02:40:00,50.0,-99.9,-100.00,East,84,5.0,10.0,-999,-99.99,,,-99.99,,2015-03-31 07:40:00,
2015-03-31 03:21:00,50.0,-99.9,-100.00,East,84,5.0,10.0,-999,-99.99,,,-99.99,,2015-03-31 08:21:00,
2015-03-31 03:31:00,50.0,-99.9,-100.00,East,84,5.0,10.0,-999,-99.99,,,-99.99,,2015-03-31 08:31:00,
2015-03-31 04:40:00,42.0,-99.9,-100.00,NNE,32,4.0,8.0,-999,-99.99,,,-99.99,,2015-03-31 09:40:00,
2015-03-31 05:21:00,42.0,-99.9,-100.00,NNE,32,4.0,8.0,-999,-99.99,,,-99.99,,2015-03-31 10:21:00,
2015-03-31 05:31:00,42.0,-99.9,-100.00,NNE,32,4.0,8.0,-999,-99.99,,,-99.99,,2015-03-31 10:31:00,
2015-03-31 06:22:00,43.0,-99.9,-100.00,NNE,25,2.0,7.0,-999,-99.99,,,-99.99,,2015-03-31 11:22:00,
2015-03-31 06:32:00,42.0,-99.9,-100.00,North,4,6.0,7.0,-999,-99.99,,,-99.99,,2015-03-31 11:32:00,
2015-03-31 06:42:00,42.0,-99.9,-100.00,North,4,6.0,7.0,-999,-99.99,,,-99.99,,2015-03-31 11:42:00,
2015-03-31 06:52:00,42.0,-99.9,-100.00,North,4,6.0,7.0,-999,-99.99,,,-99.99,,2015-03-31 11:52:00,
2015-03-31 08:00:00,44.0,-99.9,-100.00,NNE,29,10.0,12.0,-999,-99.99,,,-99.99,,2015-03-31 13:00:00,
2015-03-31 08:31:00,44.0,-99.9,-100.00,NNE,29,10.0,12.0,-999,-99.99,,,-99.99,,2015-03-31 13:31:00,
2015-03-31 08:42:00,44.0,-99.9,-100.00,NNE,29,10.0,12.0,-999,-99.99,,,-99.99,,2015-03-31 13:42:00,
2015-03-31 08:52:00,44.0,-99.9,-100.00,NNE,29,10.0,12.0,-999,-99.99,,,-99.99,,2015-03-31 13:52:00,
2015-03-31 10:01:00,57.0,-99.9,-100.00,NE,43,10.0,13.0,-999,-99.99,,,-99.99,,2015-03-31 15:01:00,
2015-03-31 10:11:00,57.0,-99.9,-100.00,NE,43,10.0,13.0,-999,-99.99,,,-99.99,,2015-03-31 15:11:00,
2015-03-31 10:21:00,57.0,-99.9,-100.00,NE,43,10.0,13.0,-999,-99.99,,,-99.99,,2015-03-31 15:21:00,
2015-03-31 10:52:00,62.0,-99.9,-100.00,East,87,11.0,16.0,-999,-99.99,,,-99.99,,2015-03-31 15:52:00,
2015-03-31 11:01:00,62.0,-99.9,-100.00,East,87,11.0,16.0,-999,-99.99,,,-99.99,,2015-03-31 16:01:00,